Time;durP1;ratioP1;P1;durP2;ratioP2;P2;SDS_P1;SDS_P2;PMS_P1;PMS_P2;Temp;Humidity;BMP_temperature;BMP_pressure;BME280_temperature;BME280_humidity;BME280_pressure;Samples;Min_cycle;Max_cycle;Signal;HPM_P1;HPM_P2
2022/10/05 00:00:13;;;;;;;12.25;11.15;;;;;;;;;;10156550;28;20047;-67
2022/10/05 00:05:18;;;;;;;12.20;11.10;;;;;;;;;;10148110;28;20046;-67
2022/10/05 00:10:16;;;;;;;12.35;11.07;;;;;;;;;;10152950;28;20054;-67
2022/10/05 00:15:14;;;;;;;12.27;11.05;;;;;;;;;;10148989;28;20057;-68
2022/10/05 00:20:18;;;;;;;12.40;11.18;;;;;;;;;;10155499;28;20050;-67
2022/10/05 00:25:16;;;;;;;12.93;11.20;;;;;;;;;;10146277;28;20050;-68
2022/10/05 00:30:17;;;;;;;12.18;11.10;;;;;;;;;;10153477;28;20488;-68
2022/10/05 00:35:14;;;;;;;12.75;11.73;;;;;;;;;;10153058;28;20523;-68
2022/10/05 00:40:19;;;;;;;12.77;11.57;;;;;;;;;;10151280;28;20481;-68
2022/10/05 00:45:31;;;;;;;12.95;11.63;;;;;;;;;;10143580;28;20043;-67
2022/10/05 00:50:30;;;;;;;13.45;11.90;;;;;;;;;;10138657;28;20174;-67
2022/10/05 00:55:33;;;;;;;13.95;12.68;;;;;;;;;;10144087;28;20046;-67
2022/10/05 01:00:32;;;;;;;13.63;12.20;;;;;;;;;;10148766;28;20046;-67
2022/10/05 01:05:31;;;;;;;13.43;12.07;;;;;;;;;;10145648;28;20042;-67
2022/10/05 01:10:32;;;;;;;15.60;14.20;;;;;;;;;;10150039;28;20057;-67
2022/10/05 01:15:38;;;;;;;14.93;13.80;;;;;;;;;;10146786;28;20062;-66
2022/10/05 01:20:38;;;;;;;15.00;13.73;;;;;;;;;;10146820;28;20042;-66
2022/10/05 01:25:34;;;;;;;14.88;13.63;;;;;;;;;;10143891;28;20508;-67
2022/10/05 01:30:36;;;;;;;14.98;13.70;;;;;;;;;;10144801;28;20042;-67
2022/10/05 01:35:33;;;;;;;15.33;14.13;;;;;;;;;;10145610;28;20389;-66
2022/10/05 01:40:53;;;;;;;15.57;14.05;;;;;;;;;;10147319;28;20042;-66
2022/10/05 01:45:56;;;;;;;15.93;14.40;;;;;;;;;;10151120;28;20424;-67
2022/10/05 01:51:04;;;;;;;15.43;14.13;;;;;;;;;;10145653;28;20057;-67
2022/10/05 01:56:03;;;;;;;15.73;14.10;;;;;;;;;;10150909;28;20042;-67
2022/10/05 02:00:59;;;;;;;15.60;14.13;;;;;;;;;;10137792;28;20050;-67
2022/10/05 02:06:03;;;;;;;15.93;14.52;;;;;;;;;;10145395;28;20056;-66
2022/10/05 02:11:02;;;;;;;17.20;15.57;;;;;;;;;;10156991;28;20050;-67
2022/10/05 02:16:27;;;;;;;17.00;15.23;;;;;;;;;;10146878;28;20516;-67
2022/10/05 02:21:24;;;;;;;16.75;15.27;;;;;;;;;;10142620;28;20060;-67
2022/10/05 02:26:20;;;;;;;17.45;15.65;;;;;;;;;;10147670;28;20051;-67
2022/10/05 02:31:22;;;;;;;16.08;14.60;;;;;;;;;;10140032;28;20130;-68
2022/10/05 02:36:22;;;;;;;16.37;14.87;;;;;;;;;;10136184;28;20055;-67
2022/10/05 02:41:21;;;;;;;17.15;15.60;;;;;;;;;;10143862;28;20420;-67
2022/10/05 02:46:23;;;;;;;15.93;14.63;;;;;;;;;;10141629;28;20042;-67
2022/10/05 02:51:22;;;;;;;16.20;14.70;;;;;;;;;;10146554;28;20046;-67
2022/10/05 02:56:34;;;;;;;17.27;15.82;;;;;;;;;;10149957;28;20047;-67
2022/10/05 03:01:40;;;;;;;17.20;15.43;;;;;;;;;;10139328;28;20039;-67
2022/10/05 03:06:51;;;;;;;17.27;15.73;;;;;;;;;;10144139;28;20042;-67
2022/10/05 03:12:09;;;;;;;17.98;16.40;;;;;;;;;;10148755;28;20058;-68
2022/10/05 03:17:12;;;;;;;19.80;18.00;;;;;;;;;;10170246;28;20046;-67
2022/10/05 03:22:27;;;;;;;17.80;16.20;;;;;;;;;;10152888;28;20061;-68
2022/10/05 03:27:36;;;;;;;17.75;16.25;;;;;;;;;;10154451;28;20857;-67
2022/10/05 03:32:46;;;;;;;18.95;17.13;;;;;;;;;;10149007;28;20045;-67
2022/10/05 03:38:05;;;;;;;21.48;17.77;;;;;;;;;;10142771;28;20512;-67
2022/10/05 03:43:04;;;;;;;18.20;16.60;;;;;;;;;;10157456;28;20041;-66
2022/10/05 03:48:06;;;;;;;18.30;16.88;;;;;;;;;;10145676;28;20050;-67
2022/10/05 03:53:13;;;;;;;18.57;17.00;;;;;;;;;;10146844;28;20038;-67
2022/10/05 03:58:17;;;;;;;19.60;18.02;;;;;;;;;;10140467;28;20043;-66
2022/10/05 04:03:52;;;;;;;19.30;17.90;;;;;;;;;;10144192;28;20448;-66
2022/10/05 04:08:55;;;;;;;20.17;18.13;;;;;;;;;;10156156;28;20062;-66
2022/10/05 04:14:25;;;;;;;20.45;18.33;;;;;;;;;;10146261;28;20051;-66
2022/10/05 04:19:33;;;;;;;20.92;18.92;;;;;;;;;;10152540;28;20054;-66
2022/10/05 04:24:33;;;;;;;19.35;17.92;;;;;;;;;;10150508;28;20046;-67
2022/10/05 04:29:57;;;;;;;20.65;18.73;;;;;;;;;;10148534;28;20070;-66
2022/10/05 04:35:00;;;;;;;20.38;18.45;;;;;;;;;;10148964;28;20464;-67
2022/10/05 04:39:58;;;;;;;20.02;18.30;;;;;;;;;;10141409;28;20042;-67
2022/10/05 04:45:10;;;;;;;20.23;18.63;;;;;;;;;;10152353;28;20062;-68
2022/10/05 04:50:25;;;;;;;21.60;19.55;;;;;;;;;;10150622;28;20064;-68
2022/10/05 04:55:45;;;;;;;22.00;20.15;;;;;;;;;;10154929;28;20142;-67
2022/10/05 05:01:03;;;;;;;20.75;18.95;;;;;;;;;;10152525;28;20133;-67
2022/10/05 05:06:23;;;;;;;22.95;21.05;;;;;;;;;;10148779;28;20045;-67
2022/10/05 05:11:42;;;;;;;22.85;20.90;;;;;;;;;;10151202;28;20500;-68
2022/10/05 05:16:41;;;;;;;22.77;20.98;;;;;;;;;;10149103;28;20073;-68
2022/10/05 05:21:43;;;;;;;23.55;21.58;;;;;;;;;;10159140;28;20050;-67
2022/10/05 05:27:05;;;;;;;23.10;21.27;;;;;;;;;;10159086;28;20136;-68
2022/10/05 05:32:19;;;;;;;23.88;21.73;;;;;;;;;;10161677;28;20050;-67
2022/10/05 05:38:00;;;;;;;24.08;22.17;;;;;;;;;;10161478;28;20107;-68
2022/10/05 05:43:13;;;;;;;24.77;22.58;;;;;;;;;;10017035;29;20062;-67
2022/10/05 05:48:25;;;;;;;24.93;23.00;;;;;;;;;;10039772;28;20101;-68
2022/10/05 05:53:28;;;;;;;26.40;24.42;;;;;;;;;;10162526;28;20469;-67
2022/10/05 05:58:32;;;;;;;25.92;23.63;;;;;;;;;;10144363;28;20463;-68
2022/10/05 06:04:14;;;;;;;26.10;24.20;;;;;;;;;;10155440;28;20046;-68
2022/10/05 06:09:29;;;;;;;26.90;24.88;;;;;;;;;;10152569;28;20132;-68
2022/10/05 06:14:33;;;;;;;29.27;26.45;;;;;;;;;;10147805;28;20046;-68
2022/10/05 06:19:35;;;;;;;27.88;25.80;;;;;;;;;;10159509;28;20065;-68
2022/10/05 06:24:44;;;;;;;28.15;25.75;;;;;;;;;;10155961;28;20053;-67
2022/10/05 06:29:50;;;;;;;28.73;26.38;;;;;;;;;;10149313;28;20046;-68
2022/10/05 06:35:18;;;;;;;27.42;24.95;;;;;;;;;;10151736;28;20058;-68
2022/10/05 06:40:14;;;;;;;28.73;26.40;;;;;;;;;;10106343;28;20055;-68
2022/10/05 06:45:11;;;;;;;28.67;25.90;;;;;;;;;;10140626;28;20058;-68
2022/10/05 06:50:26;;;;;;;28.23;25.67;;;;;;;;;;10144339;28;20520;-68
2022/10/05 06:55:54;;;;;;;28.40;26.30;;;;;;;;;;10148323;28;20058;-67
2022/10/05 07:01:14;;;;;;;25.50;23.63;;;;;;;;;;10152236;28;20124;-68
2022/10/05 07:06:18;;;;;;;27.33;25.08;;;;;;;;;;10150519;28;20054;-67
2022/10/05 07:11:37;;;;;;;27.02;24.92;;;;;;;;;;10148900;28;20483;-68
2022/10/05 07:16:50;;;;;;;29.00;26.33;;;;;;;;;;10144803;28;20133;-68
2022/10/05 07:21:50;;;;;;;26.58;24.48;;;;;;;;;;10152552;28;20046;-68
2022/10/05 07:26:53;;;;;;;27.80;25.45;;;;;;;;;;10159715;28;20096;-68
2022/10/05 07:32:03;;;;;;;27.75;25.48;;;;;;;;;;10162679;28;20034;-67
2022/10/05 07:42:41;;;;;;;27.83;25.40;;;;;;;;;;10147997;28;20051;-67
2022/10/05 07:47:52;;;;;;;25.27;23.30;;;;;;;;;;10145598;28;20053;-67
2022/10/05 07:52:57;;;;;;;26.00;23.52;;;;;;;;;;10148656;28;20081;-68
2022/10/05 07:57:56;;;;;;;25.83;23.80;;;;;;;;;;10156176;28;20046;-68
2022/10/05 08:03:08;;;;;;;25.67;23.45;;;;;;;;;;10164513;28;20464;-68
2022/10/05 08:08:16;;;;;;;24.42;22.60;;;;;;;;;;10159923;28;20046;-68
2022/10/05 08:13:26;;;;;;;25.08;22.92;;;;;;;;;;10168643;28;20038;-68
2022/10/05 08:18:25;;;;;;;25.65;23.70;;;;;;;;;;10156070;28;20121;-67
2022/10/05 08:23:37;;;;;;;23.85;22.13;;;;;;;;;;10156942;28;20418;-68
2022/10/05 08:28:39;;;;;;;23.55;21.85;;;;;;;;;;10159779;28;20053;-67
2022/10/05 08:33:49;;;;;;;23.33;21.27;;;;;;;;;;10164091;28;20134;-67
2022/10/05 08:38:50;;;;;;;22.08;20.25;;;;;;;;;;10151022;28;20046;-67
2022/10/05 08:43:53;;;;;;;23.60;21.58;;;;;;;;;;10158886;28;20133;-68
2022/10/05 08:48:59;;;;;;;21.73;19.98;;;;;;;;;;10158546;28;20054;-68
2022/10/05 08:54:17;;;;;;;21.48;19.58;;;;;;;;;;10160801;28;20169;-67
2022/10/05 08:59:25;;;;;;;20.88;19.25;;;;;;;;;;10151163;28;20056;-68
2022/10/05 09:04:56;;;;;;;21.20;19.33;;;;;;;;;;10163474;28;20042;-68
2022/10/05 09:10:06;;;;;;;21.42;19.67;;;;;;;;;;10157424;28;20042;-67
2022/10/05 09:15:15;;;;;;;21.25;19.38;;;;;;;;;;10119784;28;20051;-68
2022/10/05 09:20:40;;;;;;;20.50;18.77;;;;;;;;;;10147274;28;20051;-67
2022/10/05 09:26:09;;;;;;;19.77;17.92;;;;;;;;;;10156224;28;20065;-68
2022/10/05 09:31:09;;;;;;;19.20;17.60;;;;;;;;;;10154683;28;20092;-68
2022/10/05 09:36:44;;;;;;;19.48;17.83;;;;;;;;;;10153094;28;20046;-68
2022/10/05 09:41:46;;;;;;;20.05;18.25;;;;;;;;;;10100978;28;20082;-67
2022/10/05 09:46:52;;;;;;;19.23;17.25;;;;;;;;;;10121728;28;20053;-67
2022/10/05 09:52:04;;;;;;;17.23;15.73;;;;;;;;;;10152010;28;20091;-67
2022/10/05 09:57:19;;;;;;;18.05;16.55;;;;;;;;;;10140117;28;20066;-67
2022/10/05 10:02:26;;;;;;;18.13;16.30;;;;;;;;;;10141603;28;20078;-68
2022/10/05 10:07:40;;;;;;;16.75;15.23;;;;;;;;;;10158482;28;20050;-67
2022/10/05 10:12:46;;;;;;;17.65;15.95;;;;;;;;;;10151275;28;20042;-67
2022/10/05 10:17:44;;;;;;;17.50;15.93;;;;;;;;;;10162612;28;20444;-67
2022/10/05 10:23:01;;;;;;;18.05;16.45;;;;;;;;;;10152504;28;20467;-68
2022/10/05 10:28:03;;;;;;;16.27;14.75;;;;;;;;;;10151791;28;20071;-67
2022/10/05 10:33:00;;;;;;;16.98;15.50;;;;;;;;;;10152626;28;20046;-67
2022/10/05 10:38:22;;;;;;;17.80;16.35;;;;;;;;;;10139288;28;20054;-67
2022/10/05 10:43:22;;;;;;;15.68;14.43;;;;;;;;;;10153319;28;20053;-68
2022/10/05 10:48:40;;;;;;;17.58;15.98;;;;;;;;;;10155433;28;20054;-67
2022/10/05 10:53:56;;;;;;;17.00;15.57;;;;;;;;;;10133878;28;20039;-67
2022/10/05 10:59:11;;;;;;;17.08;15.43;;;;;;;;;;10151560;28;20070;-67
2022/10/05 11:04:08;;;;;;;16.15;14.63;;;;;;;;;;10156354;28;20080;-67
2022/10/05 11:09:33;;;;;;;16.23;14.93;;;;;;;;;;10153772;28;20065;-68
2022/10/05 11:14:32;;;;;;;17.02;15.63;;;;;;;;;;10156466;28;20038;-68
2022/10/05 11:19:47;;;;;;;16.50;15.23;;;;;;;;;;10149064;28;20046;-67
2022/10/05 11:25:03;;;;;;;15.95;14.65;;;;;;;;;;10149936;28;20141;-68
2022/10/05 11:30:21;;;;;;;16.25;14.82;;;;;;;;;;10119877;28;20058;-68
2022/10/05 11:35:23;;;;;;;16.42;14.73;;;;;;;;;;10164536;28;22964;-67
2022/10/05 11:40:37;;;;;;;16.45;15.02;;;;;;;;;;10162602;28;20149;-68
2022/10/05 11:46:04;;;;;;;14.70;13.50;;;;;;;;;;10143190;28;20060;-68
2022/10/05 11:51:19;;;;;;;15.25;13.98;;;;;;;;;;10169450;28;20046;-68
2022/10/05 11:56:34;;;;;;;14.85;13.68;;;;;;;;;;10159647;28;20042;-68
2022/10/05 12:01:40;;;;;;;15.02;13.88;;;;;;;;;;10155319;28;20121;-68
2022/10/05 12:06:59;;;;;;;14.82;13.38;;;;;;;;;;10160423;28;20053;-68
2022/10/05 12:12:24;;;;;;;14.00;12.80;;;;;;;;;;10148105;28;20050;-68
2022/10/05 12:17:59;;;;;;;13.98;12.55;;;;;;;;;;10156218;28;20042;-68
2022/10/05 12:23:39;;;;;;;13.32;12.25;;;;;;;;;;10148748;28;20052;-69
2022/10/05 12:28:57;;;;;;;12.75;11.85;;;;;;;;;;10158081;28;20052;-68
2022/10/05 12:34:03;;;;;;;12.27;11.18;;;;;;;;;;10161663;28;20054;-69
2022/10/05 12:39:15;;;;;;;13.10;12.10;;;;;;;;;;10156255;28;20069;-68
2022/10/05 12:44:17;;;;;;;12.02;11.02;;;;;;;;;;10156831;28;20048;-69
2022/10/05 12:49:17;;;;;;;11.90;11.00;;;;;;;;;;10156778;28;20050;-69
2022/10/05 12:54:16;;;;;;;11.30;10.50;;;;;;;;;;10154775;28;20096;-69
2022/10/05 12:59:20;;;;;;;11.77;10.77;;;;;;;;;;10139156;28;20042;-69
2022/10/05 13:04:27;;;;;;;10.73;9.93;;;;;;;;;;10159930;28;20057;-69
2022/10/05 13:09:55;;;;;;;11.27;10.48;;;;;;;;;;10160821;28;20162;-68
2022/10/05 13:15:04;;;;;;;12.07;11.07;;;;;;;;;;10155510;28;20049;-69
2022/10/05 13:20:06;;;;;;;11.77;10.77;;;;;;;;;;10151111;28;20068;-68
2022/10/05 13:25:16;;;;;;;12.20;11.30;;;;;;;;;;10152553;28;20508;-69
2022/10/05 13:30:29;;;;;;;11.63;10.73;;;;;;;;;;10154424;28;20453;-69
2022/10/05 13:35:30;;;;;;;12.23;11.20;;;;;;;;;;10152595;28;20046;-69
2022/10/05 13:40:34;;;;;;;11.15;10.23;;;;;;;;;;10147093;28;20682;-69
2022/10/05 13:45:46;;;;;;;13.68;12.63;;;;;;;;;;10157006;28;20053;-68
2022/10/05 13:51:05;;;;;;;12.85;11.85;;;;;;;;;;10154625;28;20092;-69
2022/10/05 13:56:07;;;;;;;13.55;12.30;;;;;;;;;;10159594;28;20069;-69
2022/10/05 14:01:40;;;;;;;15.07;13.98;;;;;;;;;;10154940;28;20061;-68
2022/10/05 14:06:39;;;;;;;14.20;13.23;;;;;;;;;;10136781;28;20046;-69
2022/10/05 14:11:48;;;;;;;13.43;12.32;;;;;;;;;;10164971;28;20166;-69
2022/10/05 14:16:51;;;;;;;14.13;13.13;;;;;;;;;;10157886;28;20042;-69
2022/10/05 14:22:02;;;;;;;13.20;12.30;;;;;;;;;;10158622;28;20053;-69
2022/10/05 14:27:08;;;;;;;12.43;11.52;;;;;;;;;;10149857;28;20057;-68
2022/10/05 14:32:12;;;;;;;12.18;11.30;;;;;;;;;;10162983;28;20058;-68
2022/10/05 14:37:23;;;;;;;12.68;11.57;;;;;;;;;;10156744;28;20507;-69
2022/10/05 14:42:22;;;;;;;11.67;10.83;;;;;;;;;;10148400;28;20046;-68
2022/10/05 14:47:22;;;;;;;11.48;10.68;;;;;;;;;;10164360;28;20104;-68
2022/10/05 14:52:22;;;;;;;;;;;;;;;;;;10150027;28;20048;-68
2022/10/05 14:57:36;;;;;;;13.35;12.07;;;;;;;;;;10143514;28;19957;-68
2022/10/05 15:02:38;;;;;;;12.68;11.60;;;;;;;;;;10148498;28;20153;-69
2022/10/05 15:07:44;;;;;;;12.50;11.70;;;;;;;;;;10164929;28;20042;-68
2022/10/05 15:12:50;;;;;;;11.90;11.10;;;;;;;;;;10159626;28;20089;-69
2022/10/05 15:17:53;;;;;;;11.73;10.80;;;;;;;;;;10172770;28;20046;-68
2022/10/05 15:23:10;;;;;;;12.50;11.45;;;;;;;;;;10170098;28;20045;-69
2022/10/05 15:28:31;;;;;;;13.02;12.13;;;;;;;;;;10166932;28;20057;-69
2022/10/05 15:33:42;;;;;;;13.82;12.32;;;;;;;;;;10119811;28;20041;-68
2022/10/05 15:38:52;;;;;;;11.75;10.77;;;;;;;;;;10171284;28;20057;-69
2022/10/05 15:44:07;;;;;;;12.48;11.50;;;;;;;;;;10163351;28;20656;-69
2022/10/05 15:49:13;;;;;;;12.73;11.82;;;;;;;;;;10150680;28;20054;-69
2022/10/05 15:54:52;;;;;;;12.63;11.68;;;;;;;;;;10153898;28;20070;-68
2022/10/05 16:00:03;;;;;;;13.88;12.60;;;;;;;;;;10156457;28;20074;-69
2022/10/05 16:10:42;;;;;;;11.50;10.70;;;;;;;;;;10160056;28;20129;-69
2022/10/05 16:15:41;;;;;;;11.60;10.70;;;;;;;;;;10152713;28;20057;-69
2022/10/05 16:20:55;;;;;;;14.55;10.95;;;;;;;;;;10153269;28;20041;-69
2022/10/05 16:25:54;;;;;;;12.38;11.20;;;;;;;;;;10170990;28;20455;-68
2022/10/05 16:30:53;;;;;;;12.60;11.57;;;;;;;;;;10152565;28;20053;-69
2022/10/05 16:35:55;;;;;;;12.73;11.73;;;;;;;;;;10149757;28;20038;-69
2022/10/05 16:40:52;;;;;;;;;;;;;;;;;;10147737;28;20121;-68
2022/10/05 16:46:00;;;;;;;13.45;12.45;;;;;;;;;;10160851;28;19945;-69
2022/10/05 16:51:18;;;;;;;14.25;13.25;;;;;;;;;;10159171;28;20049;-69
2022/10/05 16:56:23;;;;;;;14.82;13.73;;;;;;;;;;10154443;28;20140;-69
2022/10/05 17:01:42;;;;;;;14.90;13.80;;;;;;;;;;10154538;28;20039;-69
2022/10/05 17:07:04;;;;;;;14.77;13.65;;;;;;;;;;10155561;28;20069;-69
2022/10/05 17:12:22;;;;;;;14.48;13.55;;;;;;;;;;10151038;28;20137;-69
2022/10/05 17:17:41;;;;;;;14.20;13.20;;;;;;;;;;10154528;28;20050;-69
2022/10/05 17:22:49;;;;;;;15.05;13.85;;;;;;;;;;10153603;28;20050;-69
2022/10/05 17:27:54;;;;;;;14.40;13.40;;;;;;;;;;10157206;28;20065;-69
2022/10/05 17:32:57;;;;;;;15.18;14.18;;;;;;;;;;10158201;28;20038;-68
2022/10/05 17:38:20;;;;;;;15.30;14.07;;;;;;;;;;10149153;28;20093;-69
2022/10/05 17:43:40;;;;;;;13.93;12.93;;;;;;;;;;10164976;28;20069;-69
2022/10/05 17:48:47;;;;;;;14.75;13.60;;;;;;;;;;10157221;28;20042;-68
2022/10/05 17:59:02;;;;;;;15.52;14.27;;;;;;;;;;10154528;28;20431;-68
2022/10/05 18:04:11;;;;;;;14.95;13.85;;;;;;;;;;10171478;28;20088;-69
2022/10/05 18:09:31;;;;;;;14.77;13.73;;;;;;;;;;10159441;28;20419;-69
2022/10/05 18:14:52;;;;;;;14.55;13.55;;;;;;;;;;10147157;28;20496;-68
2022/10/05 18:20:08;;;;;;;15.07;13.88;;;;;;;;;;10155696;28;20042;-69
2022/10/05 18:25:12;;;;;;;14.93;13.93;;;;;;;;;;10161203;28;20133;-68
2022/10/05 18:30:24;;;;;;;14.75;13.70;;;;;;;;;;10162239;28;20078;-69
2022/10/05 18:35:27;;;;;;;15.43;14.02;;;;;;;;;;10148933;28;20523;-69
2022/10/05 18:40:42;;;;;;;14.43;13.43;;;;;;;;;;10146480;28;20049;-68
2022/10/05 18:46:07;;;;;;;15.07;13.82;;;;;;;;;;10143343;28;20066;-68
2022/10/05 18:51:17;;;;;;;13.98;13.07;;;;;;;;;;10157824;28;20069;-69
2022/10/05 18:56:13;;;;;;;13.90;12.77;;;;;;;;;;10150975;28;20046;-68
2022/10/05 19:01:27;;;;;;;13.23;12.35;;;;;;;;;;10148998;28;20061;-69
2022/10/05 19:06:26;;;;;;;13.55;12.55;;;;;;;;;;10161745;28;20048;-69
2022/10/05 19:11:42;;;;;;;14.00;12.93;;;;;;;;;;10156689;28;20081;-69
2022/10/05 19:16:52;;;;;;;13.65;12.45;;;;;;;;;;10156488;28;20530;-69
2022/10/05 19:22:09;;;;;;;13.77;12.77;;;;;;;;;;10163193;28;20041;-68
2022/10/05 19:27:09;;;;;;;13.43;12.40;;;;;;;;;;10149978;28;20068;-68
2022/10/05 19:32:24;;;;;;;13.00;11.80;;;;;;;;;;10152699;28;20061;-69
2022/10/05 19:37:33;;;;;;;12.60;11.70;;;;;;;;;;10152868;28;20453;-69
2022/10/05 19:42:48;;;;;;;12.82;11.93;;;;;;;;;;10151991;28;20046;-69
2022/10/05 19:48:04;;;;;;;13.48;12.48;;;;;;;;;;10149068;28;20050;-69
2022/10/05 19:53:02;;;;;;;13.13;12.23;;;;;;;;;;10137661;28;20074;-68
2022/10/05 19:58:01;;;;;;;12.77;11.70;;;;;;;;;;10154502;28;20050;-69
2022/10/05 20:03:07;;;;;;;12.68;11.77;;;;;;;;;;10169152;28;20058;-68
2022/10/05 20:08:04;;;;;;;12.30;11.30;;;;;;;;;;10158916;28;20050;-68
2022/10/05 20:13:01;;;;;;;12.13;10.80;;;;;;;;;;10166403;28;20048;-68
2022/10/05 20:23:32;;;;;;;10.77;9.65;;;;;;;;;;10167639;28;20042;-68
2022/10/05 20:28:29;;;;;;;10.43;9.63;;;;;;;;;;10155763;28;20041;-68
2022/10/05 20:33:27;;;;;;;10.43;9.45;;;;;;;;;;10155702;28;20088;-68
2022/10/05 20:38:23;;;;;;;10.68;9.85;;;;;;;;;;10157772;28;20381;-68
2022/10/05 20:43:20;;;;;;;10.73;9.95;;;;;;;;;;10158984;28;20047;-68
2022/10/05 20:48:16;;;;;;;11.57;10.63;;;;;;;;;;10155642;28;20069;-68
2022/10/05 20:53:13;;;;;;;11.63;10.73;;;;;;;;;;10152204;28;20519;-69
2022/10/05 20:58:09;;;;;;;11.60;10.65;;;;;;;;;;10169153;28;20054;-69
2022/10/05 21:03:07;;;;;;;11.13;10.30;;;;;;;;;;10155776;28;20092;-69
2022/10/05 21:08:03;;;;;;;11.88;10.98;;;;;;;;;;10152052;28;20046;-68
2022/10/05 21:13:01;;;;;;;11.73;10.93;;;;;;;;;;10161729;28;20499;-69
2022/10/05 21:17:57;;;;;;;12.30;11.23;;;;;;;;;;10149191;28;20039;-68
2022/10/05 21:22:54;;;;;;;12.50;11.40;;;;;;;;;;10142524;28;20410;-67
2022/10/05 21:27:51;;;;;;;12.77;11.77;;;;;;;;;;10146643;28;20509;-69
2022/10/05 21:32:47;;;;;;;12.27;11.27;;;;;;;;;;10152569;28;20064;-68
2022/10/05 21:37:43;;;;;;;12.30;11.20;;;;;;;;;;10176470;28;20054;-68
2022/10/05 21:42:40;;;;;;;12.57;11.73;;;;;;;;;;10170809;28;20649;-68
2022/10/05 21:47:36;;;;;;;13.05;11.82;;;;;;;;;;10159244;28;20693;-68
2022/10/05 21:52:33;;;;;;;11.35;10.55;;;;;;;;;;10165939;28;20399;-68
2022/10/05 21:57:30;;;;;;;11.55;10.75;;;;;;;;;;10151083;28;20466;-71
2022/10/05 22:02:26;;;;;;;13.63;11.15;;;;;;;;;;10148912;28;20042;-72
2022/10/05 22:07:22;;;;;;;11.18;10.23;;;;;;;;;;10156567;28;20061;-71
2022/10/05 22:12:19;;;;;;;11.38;10.13;;;;;;;;;;10153184;28;20050;-71
2022/10/05 22:17:18;;;;;;;10.43;9.50;;;;;;;;;;10159891;28;20057;-71
2022/10/05 22:22:15;;;;;;;11.10;10.30;;;;;;;;;;10155258;28;20412;-71
2022/10/05 22:27:12;;;;;;;12.63;10.10;;;;;;;;;;10154564;28;20050;-71
2022/10/05 22:32:08;;;;;;;10.85;9.95;;;;;;;;;;10150622;28;20073;-69
2022/10/05 22:37:05;;;;;;;10.48;9.57;;;;;;;;;;10151295;28;20053;-71
2022/10/05 22:42:01;;;;;;;10.95;9.90;;;;;;;;;;10146588;28;20043;-71
2022/10/05 22:46:57;;;;;;;11.43;10.32;;;;;;;;;;10151859;28;20042;-69
2022/10/05 22:51:53;;;;;;;10.55;9.75;;;;;;;;;;10150809;28;20053;-69
2022/10/05 22:56:50;;;;;;;11.23;10.52;;;;;;;;;;10153370;28;20057;-70
2022/10/05 23:01:46;;;;;;;16.85;15.82;;;;;;;;;;10160732;28;20042;-71
2022/10/05 23:06:42;;;;;;;20.60;19.40;;;;;;;;;;10155305;28;20042;-70
2022/10/05 23:11:39;;;;;;;24.85;23.40;;;;;;;;;;10154762;28;20042;-71
2022/10/05 23:16:35;;;;;;;29.60;28.00;;;;;;;;;;10148125;28;20046;-70
2022/10/05 23:21:32;;;;;;;21.23;19.92;;;;;;;;;;10149344;28;20586;-70
2022/10/05 23:26:29;;;;;;;19.23;18.13;;;;;;;;;;10155675;28;20053;-70
2022/10/05 23:31:27;;;;;;;16.95;16.05;;;;;;;;;;10169574;28;20433;-70
2022/10/05 23:36:25;;;;;;;18.08;17.08;;;;;;;;;;10166612;28;20046;-70
2022/10/05 23:41:24;;;;;;;15.93;14.75;;;;;;;;;;10155333;28;20786;-70
2022/10/05 23:46:20;;;;;;;15.75;14.85;;;;;;;;;;10160987;28;20038;-72
2022/10/05 23:51:17;;;;;;;15.40;14.60;;;;;;;;;;10157228;28;20050;-70
2022/10/05 23:56:13;;;;;;;15.07;14.18;;;;;;;;;;10163170;28;20488;-70
